Time;durP1;ratioP1;P1;durP2;ratioP2;P2;SDS_P1;SDS_P2;PMS_P1;PMS_P2;Temp;Humidity;BMP_temperature;BMP_pressure;BME280_temperature;BME280_humidity;BME280_pressure;Samples;Min_cycle;Max_cycle;Signal;HPM_P1;HPM_P2
2022/01/18 00:01:08;;;;;;;7.90;3.38;;;8.00;98.10;;;;;;5053066;28;20048;-47
2022/01/18 00:03:34;;;;;;;8.13;3.45;;;8.00;98.20;;;;;;5057257;28;20036;-47
2022/01/18 00:05:59;;;;;;;5.50;2.95;;;8.00;98.20;;;;;;5065173;28;20033;-47
2022/01/18 00:08:25;;;;;;;4.85;2.67;;;8.00;98.10;;;;;;5063924;28;20075;-47
2022/01/18 00:10:51;;;;;;;4.85;2.92;;;8.00;98.10;;;;;;5062254;28;20037;-47
2022/01/18 00:18:30;;;;;;;3.35;2.28;;;8.00;98.20;;;;;;5064676;28;20102;-47
2022/01/18 00:23:26;;;;;;;3.22;2.30;;;8.00;98.10;;;;;;5060278;28;20405;-47
2022/01/18 00:25:55;;;;;;;8.35;2.20;;;8.00;98.20;;;;;;5062832;28;20350;-47
2022/01/18 00:28:23;;;;;;;3.05;2.17;;;8.00;98.10;;;;;;5060147;28;20480;-47
2022/01/18 00:31:18;;;;;;;4.43;2.03;;;8.00;98.20;;;;;;5062332;28;20031;-47
2022/01/18 00:36:35;;;;;;;;;;;8.00;98.20;;;;;;5065475;28;20471;-47
2022/01/18 00:39:01;;;;;;;5.25;2.55;;;8.00;98.20;;;;;;5064744;28;19927;-47
2022/01/18 00:41:27;;;;;;;6.22;2.95;;;8.00;98.30;;;;;;5059898;28;20033;-47
2022/01/18 00:43:53;;;;;;;3.10;1.90;;;8.00;98.20;;;;;;5058094;28;20365;-47
2022/01/18 00:46:20;;;;;;;4.80;2.60;;;8.00;98.30;;;;;;5063861;28;20044;-47
2022/01/18 00:48:45;;;;;;;4.25;2.67;;;8.00;98.20;;;;;;5062050;28;20453;-47
2022/01/18 00:51:13;;;;;;;5.75;2.70;;;8.00;98.20;;;;;;5061407;28;20063;-47
2022/01/18 00:53:41;;;;;;;4.85;2.70;;;8.00;98.30;;;;;;5061959;28;20060;-47
2022/01/18 00:58:41;;;;;;;5.80;2.50;;;8.00;98.30;;;;;;5062050;28;20458;-47
2022/01/18 01:01:07;;;;;;;4.05;2.33;;;8.00;98.20;;;;;;5055364;28;20060;-47
2022/01/18 01:03:33;;;;;;;3.90;2.72;;;8.00;98.30;;;;;;5059571;28;20029;-47
2022/01/18 01:06:00;;;;;;;8.13;2.65;;;8.00;98.20;;;;;;5063161;28;20037;-47
2022/01/18 01:08:26;;;;;;;5.85;2.90;;;8.00;98.30;;;;;;5061843;28;20026;-47
2022/01/18 01:10:52;;;;;;;4.18;2.40;;;8.00;98.30;;;;;;5062019;28;20089;-47
2022/01/18 01:13:18;;;;;;;5.38;2.78;;;8.00;98.20;;;;;;5055292;28;20052;-47
2022/01/18 01:18:40;;;;;;;4.03;2.72;;;8.00;98.20;;;;;;5063573;28;20107;-47
2022/01/18 01:45:05;;;;;;;4.78;2.63;;;8.00;98.30;;;;;;5062696;28;20027;-47
2022/01/18 01:47:35;;;;;;;8.50;3.78;;;8.00;98.30;;;;;;5061269;28;20115;-47
2022/01/18 01:50:05;;;;;;;;;;;8.00;98.30;;;;;;5062090;28;20060;-47
2022/01/18 01:52:31;;;;;;;4.93;3.20;;;8.00;98.30;;;;;;5059820;28;19959;-47
2022/01/18 01:54:57;;;;;;;6.13;3.80;;;8.00;98.30;;;;;;5057073;28;20424;-48
2022/01/18 01:57:23;;;;;;;7.55;3.78;;;8.00;98.30;;;;;;5058054;28;20347;-48
2022/01/18 01:59:50;;;;;;;16.20;4.47;;;8.00;98.30;;;;;;5060971;28;20029;-47
2022/01/18 02:02:15;;;;;;;10.43;3.88;;;8.00;98.30;;;;;;5058469;28;20021;-47
2022/01/18 02:04:41;;;;;;;10.65;4.72;;;8.00;98.30;;;;;;5059523;28;20035;-47
2022/01/18 02:07:07;;;;;;;10.73;4.75;;;8.10;98.40;;;;;;5062377;28;20453;-47
2022/01/18 02:09:33;;;;;;;14.98;5.15;;;8.10;98.40;;;;;;5062172;28;20162;-47
2022/01/18 02:12:00;;;;;;;11.07;4.50;;;8.10;98.40;;;;;;5055537;28;20029;-47
2022/01/18 02:14:28;;;;;;;9.90;4.28;;;8.10;98.40;;;;;;5059078;28;20028;-47
2022/01/18 02:22:23;;;;;;;9.93;4.47;;;8.00;98.40;;;;;;5059365;28;20480;-47
2022/01/18 02:24:49;;;;;;;7.15;4.38;;;8.00;98.40;;;;;;5061198;28;20033;-47
2022/01/18 02:27:15;;;;;;;9.68;5.22;;;8.00;98.40;;;;;;5057540;28;20041;-47
2022/01/18 02:29:41;;;;;;;9.25;4.15;;;8.00;98.40;;;;;;5060034;28;20354;-47
2022/01/18 02:32:07;;;;;;;8.43;4.00;;;8.00;98.40;;;;;;5060074;28;20063;-47
2022/01/18 02:34:33;;;;;;;15.65;5.15;;;8.00;98.40;;;;;;5058430;28;20480;-48
2022/01/18 02:36:59;;;;;;;9.30;5.32;;;8.00;98.50;;;;;;5061978;28;20025;-47
2022/01/18 02:39:27;;;;;;;13.35;6.25;;;8.00;98.40;;;;;;5061449;28;20025;-47
2022/01/18 02:41:59;;;;;;;12.77;5.75;;;8.00;98.50;;;;;;5060831;28;20032;-47
2022/01/18 02:44:26;;;;;;;13.05;5.40;;;8.00;98.50;;;;;;5055389;28;20080;-48
2022/01/18 02:46:51;;;;;;;14.20;6.57;;;8.00;98.50;;;;;;5062247;28;20043;-47
2022/01/18 02:49:17;;;;;;;13.07;5.70;;;8.00;98.40;;;;;;5060632;28;20025;-47
2022/01/18 02:51:44;;;;;;;15.45;6.53;;;8.00;98.50;;;;;;5057262;28;20079;-47
2022/01/18 02:54:12;;;;;;;15.10;6.05;;;8.00;98.50;;;;;;5058075;28;20029;-47
2022/01/18 02:56:49;;;;;;;17.77;6.15;;;8.00;98.50;;;;;;5060440;28;20029;-47
2022/01/18 02:59:30;;;;;;;11.32;5.40;;;8.00;98.50;;;;;;5056143;28;20446;-47
2022/01/18 03:04:42;;;;;;;14.10;6.43;;;8.00;98.50;;;;;;5060060;28;20052;-47
2022/01/18 03:07:09;;;;;;;18.88;6.13;;;8.00;98.50;;;;;;5059909;28;20365;-47
2022/01/18 03:09:34;;;;;;;13.45;6.28;;;8.00;98.60;;;;;;5059216;28;20025;-47
2022/01/18 03:12:02;;;;;;;15.00;5.88;;;8.10;98.60;;;;;;5055824;28;20032;-47
2022/01/18 03:14:27;;;;;;;13.77;6.22;;;8.10;98.50;;;;;;5057545;28;20066;-47
2022/01/18 03:16:53;;;;;;;15.68;6.50;;;8.10;98.70;;;;;;5052014;28;21293;-47
2022/01/18 03:19:18;;;;;;;15.70;5.63;;;8.10;98.60;;;;;;5065243;28;20025;-47
2022/01/18 03:21:44;;;;;;;19.58;7.75;;;8.10;98.60;;;;;;5055887;28;20439;-47
2022/01/18 03:29:44;;;;;;;22.35;6.78;;;8.00;98.60;;;;;;5059573;28;20040;-47
2022/01/18 03:32:10;;;;;;;10.85;5.55;;;8.10;98.60;;;;;;5055498;28;20036;-47
2022/01/18 03:34:35;;;;;;;22.30;6.95;;;8.10;98.60;;;;;;5061152;28;20024;-48
2022/01/18 03:37:01;;;;;;;24.42;8.10;;;8.10;98.70;;;;;;5061222;28;20236;-47
2022/01/18 03:39:27;;;;;;;19.05;6.22;;;8.00;98.60;;;;;;5062533;28;20036;-47
2022/01/18 03:41:55;;;;;;;16.13;5.35;;;8.10;98.60;;;;;;5062216;28;20029;-47
2022/01/18 03:44:25;;;;;;;18.25;7.55;;;8.10;98.60;;;;;;5057960;28;20056;-47
2022/01/18 03:46:53;;;;;;;;;;;8.00;98.70;;;;;;5065019;28;20119;-47
2022/01/18 03:49:22;;;;;;;16.88;6.30;;;8.10;98.70;;;;;;5065765;28;19935;-47
2022/01/18 03:51:48;;;;;;;15.65;6.18;;;8.00;98.70;;;;;;5062992;28;20021;-48
2022/01/18 03:54:20;;;;;;;14.05;5.95;;;8.10;98.70;;;;;;5060619;28;20492;-47
2022/01/18 03:56:45;;;;;;;12.48;5.32;;;8.10;98.70;;;;;;5062978;28;20108;-47
2022/01/18 03:59:11;;;;;;;14.68;6.28;;;8.00;99.00;;;;;;5058792;28;20124;-47
2022/01/18 04:01:37;;;;;;;15.27;6.47;;;8.10;98.70;;;;;;5062036;28;20032;-47
2022/01/18 04:04:02;;;;;;;16.73;7.25;;;8.10;98.70;;;;;;5061619;28;20554;-47
2022/01/18 04:06:28;;;;;;;17.15;6.22;;;8.10;98.70;;;;;;5061345;28;20033;-47
2022/01/18 04:08:53;;;;;;;17.73;5.93;;;8.10;98.70;;;;;;5065008;28;20437;-47
2022/01/18 04:11:19;;;;;;;17.02;5.70;;;8.10;98.70;;;;;;5059128;28;20248;-47
2022/01/18 04:13:44;;;;;;;20.60;7.22;;;8.10;98.70;;;;;;5057858;28;20508;-47
2022/01/18 04:16:10;;;;;;;17.38;6.05;;;8.00;98.70;;;;;;5065044;28;20029;-47
2022/01/18 04:18:52;;;;;;;9.93;5.22;;;8.00;98.70;;;;;;5063958;28;20079;-47
2022/01/18 04:29:12;;;;;;;7.50;3.40;;;8.00;98.70;;;;;;5060383;28;20376;-47
2022/01/18 04:31:38;;;;;;;8.50;4.18;;;8.00;98.70;;;;;;5060302;28;20112;-47
2022/01/18 04:34:03;;;;;;;12.10;3.65;;;8.10;98.80;;;;;;5061766;28;20032;-47
2022/01/18 04:36:29;;;;;;;11.68;4.50;;;8.00;98.70;;;;;;5062042;28;20029;-47
2022/01/18 04:38:56;;;;;;;10.45;4.32;;;8.10;98.80;;;;;;5063891;28;20029;-47
2022/01/18 04:41:27;;;;;;;13.98;4.40;;;8.10;98.70;;;;;;5063393;28;20103;-47
2022/01/18 04:49:11;;;;;;;11.50;3.78;;;8.00;98.70;;;;;;5064063;28;20035;-47
2022/01/18 04:51:38;;;;;;;10.90;4.03;;;8.10;98.80;;;;;;5061939;28;20201;-47
2022/01/18 04:54:06;;;;;;;8.75;4.43;;;8.00;98.70;;;;;;5059349;28;20029;-47
2022/01/18 04:59:06;;;;;;;10.98;4.25;;;8.10;99.10;;;;;;5057633;28;20064;-47
2022/01/18 05:01:32;;;;;;;6.97;3.45;;;8.10;98.80;;;;;;5063674;28;20031;-47
2022/01/18 05:03:58;;;;;;;8.20;3.67;;;8.00;98.80;;;;;;5059074;28;20465;-47
2022/01/18 05:06:24;;;;;;;13.75;4.85;;;8.00;98.80;;;;;;5061390;28;20033;-47
2022/01/18 05:08:50;;;;;;;10.27;4.13;;;8.10;98.70;;;;;;5061955;28;20017;-47
2022/01/18 05:11:18;;;;;;;10.02;3.58;;;8.00;98.70;;;;;;5059720;28;20028;-47
2022/01/18 05:14:02;;;;;;;8.38;4.00;;;8.00;98.80;;;;;;5060742;28;20033;-47
2022/01/18 05:24:57;;;;;;;11.43;3.88;;;8.10;98.80;;;;;;5064607;28;20082;-48
2022/01/18 05:27:22;;;;;;;6.75;3.67;;;8.00;98.80;;;;;;5061988;28;20047;-47
2022/01/18 05:29:48;;;;;;;9.70;3.67;;;8.00;98.80;;;;;;5057918;28;20108;-47
2022/01/18 05:32:14;;;;;;;7.90;3.70;;;8.00;99.10;;;;;;5057702;28;20037;-48
2022/01/18 05:34:39;;;;;;;13.18;3.85;;;8.00;98.80;;;;;;5060441;28;20032;-47
2022/01/18 05:37:05;;;;;;;8.75;3.25;;;8.00;98.80;;;;;;5059726;28;20211;-47
2022/01/18 05:39:30;;;;;;;7.85;4.20;;;8.00;98.80;;;;;;5060141;28;20178;-47
2022/01/18 05:41:56;;;;;;;7.03;3.55;;;8.00;98.70;;;;;;5058073;28;20530;-47
2022/01/18 05:44:24;;;;;;;9.77;4.07;;;8.00;98.80;;;;;;5058810;28;20337;-47
2022/01/18 05:46:50;;;;;;;9.73;4.07;;;8.00;98.80;;;;;;5060037;28;20505;-47
2022/01/18 05:49:15;;;;;;;9.25;4.22;;;8.00;98.70;;;;;;5058860;28;20055;-47
2022/01/18 05:51:41;;;;;;;10.25;3.88;;;8.00;98.80;;;;;;5057479;28;20029;-47
2022/01/18 05:54:07;;;;;;;6.97;3.50;;;8.00;98.80;;;;;;5057444;28;20064;-47
2022/01/18 05:56:34;;;;;;;6.70;2.92;;;8.00;98.80;;;;;;5062081;28;20067;-47
2022/01/18 05:59:03;;;;;;;10.02;2.80;;;8.00;98.80;;;;;;5058977;28;20032;-47
2022/01/18 06:01:33;;;;;;;9.07;2.88;;;8.00;98.80;;;;;;5055621;28;20480;-47
2022/01/18 06:09:10;;;;;;;8.45;3.00;;;8.00;98.80;;;;;;5055935;28;20031;-48
2022/01/18 06:11:35;;;;;;;8.00;3.22;;;8.00;98.60;;;;;;5057196;28;20037;-48
2022/01/18 06:14:01;;;;;;;6.85;3.50;;;8.00;98.70;;;;;;5059499;28;20032;-48
2022/01/18 06:16:27;;;;;;;6.90;3.42;;;8.00;99.10;;;;;;5060195;28;20497;-48
2022/01/18 06:18:53;;;;;;;7.40;3.05;;;8.00;98.70;;;;;;5062029;28;20354;-48
2022/01/18 06:21:19;;;;;;;7.43;3.60;;;8.00;98.70;;;;;;5060583;28;20037;-48
2022/01/18 06:23:45;;;;;;;8.88;3.45;;;8.00;98.70;;;;;;5061425;28;20071;-48
2022/01/18 06:26:16;;;;;;;9.40;3.30;;;8.00;98.70;;;;;;5063022;28;20449;-48
2022/01/18 06:28:42;;;;;;;;;;;8.00;98.70;;;;;;5059684;28;20031;-48
2022/01/18 06:31:07;;;;;;;11.93;3.53;;;8.00;98.70;;;;;;5061286;28;19904;-48
2022/01/18 06:33:33;;;;;;;9.93;3.50;;;8.00;98.70;;;;;;5061122;28;20039;-48
2022/01/18 06:35:58;;;;;;;11.25;3.78;;;8.00;98.70;;;;;;5062751;28;20025;-48
2022/01/18 06:38:24;;;;;;;8.43;3.88;;;8.00;98.80;;;;;;5063145;28;20086;-48
2022/01/18 06:40:50;;;;;;;7.25;3.65;;;8.00;98.70;;;;;;5061807;28;20032;-48
2022/01/18 06:43:16;;;;;;;6.55;3.60;;;8.00;98.70;;;;;;5063875;28;20027;-48
2022/01/18 06:45:42;;;;;;;11.27;3.65;;;8.00;98.70;;;;;;5057860;28;20059;-48
2022/01/18 06:48:07;;;;;;;11.35;4.47;;;8.00;98.70;;;;;;5062968;28;20021;-48
2022/01/18 06:50:34;;;;;;;9.52;4.25;;;8.00;98.80;;;;;;5061778;28;20017;-47
2022/01/18 06:53:00;;;;;;;16.85;4.85;;;8.00;98.80;;;;;;5059160;28;20028;-49
2022/01/18 06:55:26;;;;;;;11.88;3.80;;;8.00;98.70;;;;;;5062885;28;20021;-48
2022/01/18 06:57:52;;;;;;;11.23;3.80;;;8.00;98.80;;;;;;5061043;28;20032;-48
2022/01/18 07:00:18;;;;;;;10.32;4.95;;;8.00;98.80;;;;;;5059092;28;20028;-48
2022/01/18 07:02:43;;;;;;;9.40;4.22;;;8.00;98.80;;;;;;5057790;28;20359;-48
2022/01/18 07:05:11;;;;;;;10.18;4.38;;;8.10;98.80;;;;;;5062132;28;20044;-48
2022/01/18 07:07:37;;;;;;;11.75;4.28;;;8.10;98.80;;;;;;5069316;28;20040;-48
2022/01/18 07:10:03;;;;;;;10.48;3.67;;;8.10;98.80;;;;;;5065167;28;20026;-48
2022/01/18 07:12:33;;;;;;;8.13;4.28;;;8.10;98.80;;;;;;5058913;28;20056;-48
2022/01/18 07:14:59;;;;;;;10.38;4.13;;;8.00;98.70;;;;;;5065868;28;20035;-47
2022/01/18 07:17:24;;;;;;;17.05;5.13;;;8.10;98.80;;;;;;5063781;28;20021;-48
2022/01/18 07:19:50;;;;;;;9.88;4.53;;;8.10;98.80;;;;;;5072974;28;20459;-48
2022/01/18 07:22:16;;;;;;;10.35;4.50;;;8.10;98.80;;;;;;5057403;28;20021;-48
2022/01/18 07:24:44;;;;;;;9.50;3.65;;;8.10;98.80;;;;;;5058948;28;20031;-48
2022/01/18 07:27:12;;;;;;;14.77;5.05;;;8.10;98.80;;;;;;5065432;28;20029;-48
2022/01/18 07:29:38;;;;;;;10.38;4.38;;;8.00;98.80;;;;;;5066050;28;20075;-48
2022/01/18 07:32:05;;;;;;;12.00;4.22;;;8.10;98.80;;;;;;5074152;28;20027;-48
2022/01/18 07:34:32;;;;;;;18.48;4.72;;;8.10;98.80;;;;;;5067183;28;20016;-48
2022/01/18 07:36:58;;;;;;;12.88;5.03;;;8.10;98.80;;;;;;5065499;28;20036;-48
2022/01/18 07:39:24;;;;;;;15.18;5.47;;;8.10;98.80;;;;;;5068168;28;20032;-48
2022/01/18 07:41:49;;;;;;;15.88;5.18;;;8.10;98.90;;;;;;5068211;28;20017;-47
2022/01/18 07:44:15;;;;;;;13.27;4.63;;;8.10;98.80;;;;;;5072068;28;20018;-48
2022/01/18 07:46:41;;;;;;;13.63;5.38;;;8.10;98.80;;;;;;5067835;28;20071;-48
2022/01/18 07:49:07;;;;;;;13.32;5.35;;;8.10;98.80;;;;;;5070306;28;20017;-48
2022/01/18 07:51:32;;;;;;;14.82;5.65;;;8.10;98.80;;;;;;5071280;28;20060;-48
2022/01/18 07:53:58;;;;;;;18.45;5.95;;;8.00;98.80;;;;;;5072491;28;20067;-48
2022/01/18 07:56:23;;;;;;;18.73;6.15;;;8.10;98.90;;;;;;5071846;28;20062;-48
2022/01/18 07:58:49;;;;;;;17.48;6.97;;;8.10;98.80;;;;;;5065894;28;20016;-48
2022/01/18 08:01:14;;;;;;;17.48;6.40;;;8.00;98.90;;;;;;5057323;28;20108;-47
2022/01/18 08:03:40;;;;;;;20.25;6.07;;;8.10;98.90;;;;;;5056356;28;20035;-48
2022/01/18 08:06:06;;;;;;;19.20;7.03;;;8.10;98.90;;;;;;5054063;28;20125;-48
2022/01/18 08:08:32;;;;;;;15.20;6.65;;;8.00;98.90;;;;;;5058927;28;20032;-48
2022/01/18 08:10:58;;;;;;;18.65;7.05;;;8.00;98.90;;;;;;5057702;28;20028;-48
2022/01/18 08:13:28;;;;;;;17.58;6.13;;;8.00;98.90;;;;;;5062353;28;20025;-48
2022/01/18 08:16:10;;;;;;;18.55;5.40;;;8.10;98.90;;;;;;5063324;28;20035;-48
2022/01/18 08:18:36;;;;;;;11.43;5.13;;;8.10;99.00;;;;;;5065319;28;20351;-48
2022/01/18 08:21:03;;;;;;;10.98;5.50;;;8.10;99.00;;;;;;5069464;28;20024;-48
2022/01/18 08:23:28;;;;;;;16.73;6.10;;;8.00;98.90;;;;;;5070074;28;20361;-48
2022/01/18 08:25:54;;;;;;;13.02;5.25;;;8.10;99.00;;;;;;5081013;28;20455;-48
2022/01/18 08:28:19;;;;;;;14.32;5.40;;;8.10;99.00;;;;;;5073497;28;20081;-48
2022/01/18 08:30:45;;;;;;;15.60;5.20;;;8.00;98.90;;;;;;5070487;28;20031;-47
2022/01/18 08:33:10;;;;;;;10.10;4.63;;;8.00;99.00;;;;;;5067853;28;20024;-48
2022/01/18 08:35:37;;;;;;;14.93;4.53;;;8.00;99.00;;;;;;5076274;28;20522;-48
2022/01/18 08:38:03;;;;;;;10.05;4.70;;;8.10;99.00;;;;;;5072361;28;20100;-48
2022/01/18 08:40:29;;;;;;;14.57;5.53;;;8.10;99.00;;;;;;5064401;28;20098;-47
2022/01/18 08:42:55;;;;;;;15.13;5.40;;;8.10;98.90;;;;;;5066757;28;20419;-48
2022/01/18 08:45:20;;;;;;;10.88;5.35;;;8.10;99.00;;;;;;5068666;28;20029;-48
2022/01/18 08:47:47;;;;;;;14.38;5.38;;;8.00;99.00;;;;;;5063889;28;20035;-48
2022/01/18 08:50:13;;;;;;;11.63;5.00;;;8.10;98.90;;;;;;5066688;28;20024;-48
2022/01/18 08:52:40;;;;;;;13.20;5.15;;;8.00;99.10;;;;;;5062958;28;20028;-48
2022/01/18 08:55:06;;;;;;;9.70;4.28;;;8.00;98.90;;;;;;5067696;28;20025;-48
2022/01/18 08:57:32;;;;;;;12.45;5.55;;;8.00;99.00;;;;;;5067014;28;20066;-48
2022/01/18 08:59:57;;;;;;;10.68;4.85;;;8.00;99.00;;;;;;5066525;28;20123;-48
2022/01/18 09:02:23;;;;;;;10.90;4.82;;;8.00;99.10;;;;;;5062107;28;20334;-48
2022/01/18 09:04:50;;;;;;;14.90;6.45;;;8.10;99.10;;;;;;5064750;28;20058;-48
2022/01/18 09:07:18;;;;;;;10.77;4.90;;;8.10;99.00;;;;;;5064315;28;20032;-49
2022/01/18 09:09:45;;;;;;;11.35;4.90;;;8.10;99.10;;;;;;5067344;28;20029;-48
2022/01/18 09:12:13;;;;;;;13.95;6.00;;;8.10;99.20;;;;;;5065565;28;20571;-48
2022/01/18 09:14:39;;;;;;;11.18;5.65;;;8.10;99.10;;;;;;5064656;28;20377;-48
2022/01/18 09:17:05;;;;;;;8.95;4.45;;;8.10;99.10;;;;;;5067007;28;20489;-47
2022/01/18 09:19:31;;;;;;;11.50;4.80;;;8.10;99.20;;;;;;5072010;28;20867;-48
2022/01/18 09:21:57;;;;;;;15.15;5.82;;;8.10;99.20;;;;;;5066290;28;20025;-48
2022/01/18 09:24:23;;;;;;;12.38;5.10;;;8.10;99.10;;;;;;5065749;28;20500;-48
2022/01/18 09:26:49;;;;;;;10.70;4.55;;;8.10;99.20;;;;;;5066915;28;20043;-48
2022/01/18 09:29:15;;;;;;;11.55;5.25;;;8.10;99.10;;;;;;5062644;28;20271;-48
2022/01/18 09:31:41;;;;;;;10.63;5.15;;;8.10;99.10;;;;;;5059178;28;20033;-48
2022/01/18 09:34:06;;;;;;;8.18;3.55;;;8.10;99.20;;;;;;5069115;28;20020;-48
2022/01/18 09:36:32;;;;;;;11.30;4.53;;;8.10;99.10;;;;;;5074353;28;20365;-48
2022/01/18 09:38:58;;;;;;;8.35;3.95;;;8.10;99.20;;;;;;5063684;28;20502;-48
2022/01/18 09:41:31;;;;;;;8.10;3.92;;;8.20;99.20;;;;;;5063649;28;20052;-48
2022/01/18 09:43:57;;;;;;;10.05;4.57;;;8.20;99.20;;;;;;5068243;28;20099;-48
2022/01/18 09:46:24;;;;;;;10.40;3.80;;;8.20;99.20;;;;;;5068173;28;20064;-48
2022/01/18 09:48:55;;;;;;;12.90;5.38;;;8.20;99.20;;;;;;5069106;28;20090;-48
2022/01/18 09:51:22;;;;;;;15.77;4.60;;;8.20;99.20;;;;;;5073274;28;20039;-48
2022/01/18 09:53:47;;;;;;;12.98;5.43;;;8.20;99.20;;;;;;5071789;28;20473;-47
2022/01/18 09:56:14;;;;;;;13.20;4.75;;;8.20;99.20;;;;;;5069873;28;20032;-47
2022/01/18 09:58:40;;;;;;;16.20;4.88;;;8.20;99.20;;;;;;5070574;28;20089;-48
2022/01/18 10:01:06;;;;;;;11.68;4.78;;;8.20;99.30;;;;;;5068692;28;20036;-47
2022/01/18 10:03:34;;;;;;;11.27;5.22;;;8.20;99.30;;;;;;5069828;28;20115;-48
2022/01/18 10:06:02;;;;;;;9.10;4.30;;;8.20;99.20;;;;;;5072381;28;20519;-48
2022/01/18 10:08:28;;;;;;;14.63;5.03;;;8.20;99.30;;;;;;5070375;28;20498;-48
2022/01/18 10:11:00;;;;;;;11.30;4.72;;;8.20;99.30;;;;;;5073282;28;20028;-48
2022/01/18 10:13:30;;;;;;;15.95;5.57;;;8.20;99.30;;;;;;5066523;28;20446;-48
2022/01/18 10:16:09;;;;;;;12.70;5.00;;;8.20;99.30;;;;;;5068583;28;20539;-48
2022/01/18 10:18:47;;;;;;;12.38;4.90;;;8.20;99.30;;;;;;5066692;28;20025;-48
2022/01/18 10:21:47;;;;;;;10.30;3.88;;;8.20;99.30;;;;;;5063716;28;20116;-47
2022/01/18 10:24:21;;;;;;;11.07;4.88;;;8.20;99.30;;;;;;5069130;28;20074;-47
2022/01/18 10:26:51;;;;;;;11.38;4.25;;;8.20;99.30;;;;;;5068481;28;20116;-48
2022/01/18 10:29:19;;;;;;;;;;;8.20;99.30;;;;;;5064514;28;20060;-48
2022/01/18 10:37:05;;;;;;;7.00;3.38;;;8.30;99.70;;;;;;5065600;28;20149;-48
2022/01/18 10:39:58;;;;;;;10.77;4.22;;;8.20;99.40;;;;;;5066927;28;20085;-48
2022/01/18 10:42:50;;;;;;;18.17;4.93;;;8.30;99.80;;;;;;5060199;28;20039;-48
2022/01/18 10:45:22;;;;;;;9.70;4.50;;;8.30;99.40;;;;;;5059684;28;20052;-48
2022/01/18 10:47:56;;;;;;;8.02;4.22;;;8.30;99.40;;;;;;5063684;28;20366;-48
2022/01/18 10:50:22;;;;;;;8.50;4.03;;;8.30;99.40;;;;;;5067163;28;20027;-48
2022/01/18 10:52:49;;;;;;;12.32;4.55;;;8.30;99.40;;;;;;5065665;28;20021;-48
2022/01/18 10:55:25;;;;;;;9.43;4.57;;;8.30;99.40;;;;;;5069143;28;20092;-48
2022/01/18 10:57:51;;;;;;;9.35;4.32;;;8.30;99.40;;;;;;5065547;28;20024;-48
2022/01/18 11:00:22;;;;;;;9.13;3.97;;;8.30;99.40;;;;;;5067404;28;20403;-48
2022/01/18 11:02:56;;;;;;;;;;;8.30;99.40;;;;;;5057484;28;20503;-47
2022/01/18 11:05:28;;;;;;;10.07;4.28;;;8.30;99.40;;;;;;5067108;28;19974;-48
2022/01/18 11:07:56;;;;;;;7.65;3.58;;;8.30;99.80;;;;;;5068568;28;20473;-48
2022/01/18 11:10:25;;;;;;;7.25;3.55;;;8.30;99.50;;;;;;5073039;28;20029;-48
2022/01/18 11:13:10;;;;;;;7.57;2.65;;;8.30;99.50;;;;;;5069321;28;20029;-48
2022/01/18 11:15:39;;;;;;;10.40;4.35;;;8.30;99.40;;;;;;5074260;28;20037;-48
2022/01/18 11:18:14;;;;;;;5.93;3.58;;;8.30;99.40;;;;;;5066228;28;20020;-48
2022/01/18 11:20:42;;;;;;;10.70;3.42;;;8.30;99.40;;;;;;5061132;28;20461;-48
2022/01/18 11:23:09;;;;;;;13.52;4.10;;;8.30;99.40;;;;;;5065085;28;20082;-48
2022/01/18 11:25:36;;;;;;;8.65;3.22;;;8.30;99.40;;;;;;5064360;28;20035;-48
2022/01/18 11:28:04;;;;;;;5.68;2.97;;;8.40;99.50;;;;;;5061094;28;20029;-48
2022/01/18 11:30:34;;;;;;;9.27;3.28;;;8.40;99.40;;;;;;5059532;28;20016;-48
2022/01/18 11:33:02;;;;;;;7.75;3.03;;;8.40;99.50;;;;;;5063025;28;20033;-48
2022/01/18 11:35:47;;;;;;;6.07;3.05;;;8.40;99.50;;;;;;5062482;28;20032;-48
2022/01/18 11:38:34;;;;;;;7.70;3.20;;;8.40;99.50;;;;;;5062801;28;20028;-47
2022/01/18 11:41:02;;;;;;;7.13;2.45;;;8.40;99.50;;;;;;5061868;28;20024;-48
2022/01/18 11:43:39;;;;;;;6.13;2.55;;;8.40;99.60;;;;;;5064848;28;20046;-48
2022/01/18 11:46:24;;;;;;;4.28;1.83;;;8.40;99.60;;;;;;5066177;28;20090;-48
2022/01/18 11:49:15;;;;;;;8.13;2.40;;;8.40;99.90;;;;;;5059717;28;20048;-48
2022/01/18 11:51:58;;;;;;;12.60;2.67;;;8.40;99.60;;;;;;5061454;28;20629;-48
2022/01/18 11:54:32;;;;;;;9.45;3.38;;;8.40;99.70;;;;;;5063605;28;20032;-48
2022/01/18 11:56:59;;;;;;;7.35;2.40;;;8.40;99.70;;;;;;5065775;28;20277;-48
2022/01/18 11:59:27;;;;;;;8.25;2.80;;;8.40;99.60;;;;;;5063595;28;20033;-48
2022/01/18 12:02:02;;;;;;;6.55;2.70;;;8.40;99.70;;;;;;5064546;28;20041;-48
2022/01/18 12:04:49;;;;;;;3.90;1.83;;;8.40;99.60;;;;;;5065649;28;20029;-48
2022/01/18 12:07:33;;;;;;;7.35;2.13;;;8.50;99.70;;;;;;5069107;28;20046;-48
2022/01/18 12:10:00;;;;;;;9.07;1.95;;;8.40;99.70;;;;;;5066379;28;20017;-48
2022/01/18 12:12:41;;;;;;;2.50;1.38;;;8.40;99.60;;;;;;5067824;28;20021;-48
2022/01/18 12:15:15;;;;;;;6.95;1.83;;;8.40;99.60;;;;;;5065036;28;20056;-47
2022/01/18 12:17:47;;;;;;;9.30;1.95;;;8.40;99.60;;;;;;5063827;28;20025;-48
2022/01/18 12:20:38;;;;;;;3.22;1.20;;;8.40;99.50;;;;;;5068472;28;20501;-48
2022/01/18 12:23:09;;;;;;;6.18;1.55;;;8.40;99.60;;;;;;5066057;28;20040;-48
2022/01/18 12:26:00;;;;;;;2.65;1.58;;;8.50;99.70;;;;;;5063010;28;20457;-48
2022/01/18 12:34:29;;;;;;;1.67;1.00;;;8.50;99.70;;;;;;5060178;28;20037;-47
2022/01/18 12:37:07;;;;;;;3.55;1.33;;;8.50;99.60;;;;;;5067182;28;20082;-48
2022/01/18 12:45:05;;;;;;;2.42;1.00;;;8.50;99.50;;;;;;5062183;28;20029;-48
2022/01/18 12:47:34;;;;;;;7.13;1.58;;;8.50;99.40;;;;;;5058630;28;20033;-48
2022/01/18 12:50:03;;;;;;;3.35;1.15;;;8.50;99.80;;;;;;5059339;28;20033;-48
2022/01/18 12:53:11;;;;;;;1.85;0.82;;;8.50;99.90;;;;;;5063254;28;20060;-48
2022/01/18 12:55:44;;;;;;;4.68;1.48;;;8.50;99.70;;;;;;5070075;28;20036;-48
2022/01/18 12:58:22;;;;;;;2.95;1.17;;;8.50;99.60;;;;;;5066091;28;20029;-48
2022/01/18 13:00:48;;;;;;;5.70;1.13;;;8.50;99.60;;;;;;5070425;28;20029;-48
2022/01/18 13:03:23;;;;;;;2.05;1.20;;;8.50;99.60;;;;;;5064895;28;20032;-48
2022/01/18 13:05:51;;;;;;;8.07;1.35;;;8.50;99.50;;;;;;5072485;28;20067;-48
2022/01/18 13:08:19;;;;;;;2.88;1.20;;;8.50;99.50;;;;;;5071341;28;20476;-48
2022/01/18 13:10:46;;;;;;;1.80;0.85;;;8.50;99.50;;;;;;5071315;28;20044;-48
2022/01/18 13:13:15;;;;;;;1.42;0.93;;;8.50;99.50;;;;;;5067392;28;20055;-48
2022/01/18 13:24:12;;;;;;;3.25;1.20;;;8.50;99.40;;;;;;5069212;28;20039;-48
2022/01/18 13:26:45;;;;;;;6.18;1.42;;;8.50;99.30;;;;;;5068184;28;20071;-48
2022/01/18 13:29:12;;;;;;;3.60;1.08;;;8.50;99.40;;;;;;5068012;28;20066;-47
2022/01/18 13:31:41;;;;;;;2.20;1.10;;;8.50;99.40;;;;;;5063614;28;20038;-48
2022/01/18 13:34:10;;;;;;;4.20;1.38;;;8.50;99.30;;;;;;5062846;28;20545;-48
2022/01/18 13:36:56;;;;;;;4.80;1.00;;;8.50;99.30;;;;;;5073497;28;20036;-48
2022/01/18 13:39:27;;;;;;;5.75;1.10;;;8.50;99.20;;;;;;5067093;28;20025;-48
2022/01/18 13:41:53;;;;;;;5.25;1.50;;;8.50;99.20;;;;;;5075462;28;20040;-47
2022/01/18 13:44:19;;;;;;;7.38;1.40;;;8.50;99.20;;;;;;5072059;28;20095;-47
2022/01/18 13:46:44;;;;;;;2.42;1.02;;;8.50;99.20;;;;;;5072967;28;20075;-48
2022/01/18 13:49:10;;;;;;;0.93;0.88;;;8.50;99.20;;;;;;5067060;28;20533;-49
2022/01/18 13:51:37;;;;;;;2.60;1.20;;;8.50;99.10;;;;;;5068670;28;20089;-48
2022/01/18 13:54:08;;;;;;;1.48;0.80;;;8.50;99.10;;;;;;5069597;28;20055;-47
2022/01/18 13:56:46;;;;;;;4.93;1.40;;;8.50;99.00;;;;;;5067677;28;20044;-48
2022/01/18 13:59:12;;;;;;;2.78;1.00;;;8.50;99.10;;;;;;5068617;28;20024;-48
2022/01/18 14:01:41;;;;;;;2.05;1.20;;;8.50;99.10;;;;;;5066247;28;20027;-48
2022/01/18 14:04:18;;;;;;;3.17;1.63;;;8.50;99.00;;;;;;5066478;28;20028;-47
2022/01/18 14:06:44;;;;;;;2.92;1.02;;;8.50;99.00;;;;;;5068046;28;20075;-48
2022/01/18 14:09:13;;;;;;;4.90;1.27;;;8.50;99.00;;;;;;5065245;28;20028;-48
2022/01/18 14:11:47;;;;;;;2.03;1.17;;;8.50;99.00;;;;;;5068291;28;20029;-48
2022/01/18 14:14:18;;;;;;;1.27;0.77;;;8.50;99.00;;;;;;5061976;28;20039;-48
2022/01/18 14:16:48;;;;;;;6.15;1.30;;;8.50;99.30;;;;;;5068093;28;20024;-48
2022/01/18 14:19:34;;;;;;;4.00;1.02;;;8.50;98.90;;;;;;5063870;28;20106;-48
2022/01/18 14:22:22;;;;;;;0.82;0.80;;;8.50;98.90;;;;;;5066136;28;20028;-48
2022/01/18 14:24:57;;;;;;;2.53;1.17;;;8.50;98.90;;;;;;5065318;28;20020;-47
2022/01/18 14:27:25;;;;;;;3.58;1.50;;;8.50;98.90;;;;;;5065574;28;20089;-48
2022/01/18 14:30:03;;;;;;;6.03;1.33;;;8.50;98.90;;;;;;5068416;28;20025;-48
2022/01/18 14:32:41;;;;;;;2.58;1.20;;;8.50;98.90;;;;;;5063962;28;20031;-48
2022/01/18 14:35:13;;;;;;;2.08;1.40;;;8.50;98.80;;;;;;5067800;28;20032;-48
2022/01/18 14:37:43;;;;;;;6.25;1.40;;;8.50;98.80;;;;;;5060681;28;20060;-48
2022/01/18 14:40:23;;;;;;;10.35;2.42;;;8.50;98.80;;;;;;5070903;28;20064;-48
2022/01/18 14:42:56;;;;;;;2.00;1.20;;;8.50;98.70;;;;;;5063832;28;20060;-48
2022/01/18 14:47:50;;;;;;;2.08;1.40;;;8.50;98.70;;;;;;5062604;28;20078;-48
2022/01/18 14:50:22;;;;;;;1.00;0.85;;;8.50;98.60;;;;;;5061826;28;20029;-48
2022/01/18 14:52:50;;;;;;;2.55;1.13;;;8.50;98.70;;;;;;5062468;28;20023;-48